createdAt,value
2022-11-21T00:00:52.174Z,93742.59
2022-11-21T00:03:19.030Z,93753.03
2022-11-21T00:05:48.600Z,93735.91
2022-11-21T00:08:17.728Z,93688.97
2022-11-21T00:10:44.949Z,93722.06
2022-11-21T00:13:17.158Z,93730.72
2022-11-21T00:15:44.091Z,93750.09
2022-11-21T00:18:14.089Z,93688.66
2022-11-21T00:20:44.211Z,93738.47
2022-11-21T00:23:11.361Z,93730.88
2022-11-21T00:25:39.023Z,93723.56
2022-11-21T00:28:06.086Z,93744.75
2022-11-21T00:30:32.868Z,93724.25
2022-11-21T00:33:00.081Z,93752.63
2022-11-21T00:35:27.229Z,93736.47
2022-11-21T00:37:53.896Z,93713.94
2022-11-21T00:40:20.760Z,93655.53
2022-11-21T00:42:47.555Z,93667.28
2022-11-21T00:45:15.616Z,93668.03
2022-11-21T00:47:45.019Z,93686.00
2022-11-21T00:50:11.956Z,93688.47
2022-11-21T00:52:38.642Z,93689.28
2022-11-21T00:55:05.646Z,93695.22
2022-11-21T00:57:32.294Z,93689.53
2022-11-21T00:59:58.877Z,93660.56
2022-11-21T01:02:25.681Z,93686.56
2022-11-21T01:04:52.318Z,93680.38
2022-11-21T01:07:19.155Z,93660.25
2022-11-21T01:09:46.312Z,93670.28
2022-11-21T01:12:13.159Z,93653.47
2022-11-21T01:14:39.925Z,93602.09
2022-11-21T01:17:06.732Z,93660.88
2022-11-21T01:19:33.428Z,93656.56
2022-11-21T01:22:00.081Z,93672.16
2022-11-21T01:24:27.094Z,93680.97
2022-11-21T01:26:55.017Z,93678.72
2022-11-21T01:29:21.645Z,93672.78
2022-11-21T01:31:48.605Z,93698.59
2022-11-21T01:34:15.802Z,93658.78
2022-11-21T01:36:42.449Z,93682.00
2022-11-21T01:39:10.610Z,93652.53
2022-11-21T01:41:40.084Z,93658.03
2022-11-21T01:44:16.930Z,93663.06
2022-11-21T01:46:43.835Z,93654.25
2022-11-21T01:49:16.954Z,93653.28
2022-11-21T01:51:46.321Z,93654.47
2022-11-21T01:54:24.302Z,93641.84
2022-11-21T01:57:05.546Z,93633.25
2022-11-21T01:59:34.964Z,93627.66
2022-11-21T02:02:05.399Z,93622.22
2022-11-21T02:04:33.866Z,93635.13
2022-11-21T02:07:03.251Z,93634.09
2022-11-21T02:09:33.388Z,93633.09
2022-11-21T02:12:10.117Z,93657.03
2022-11-21T02:14:38.558Z,93656.03
2022-11-21T02:17:08.174Z,93623.53
2022-11-21T02:19:53.843Z,93578.63
2022-11-21T02:22:45.215Z,93656.56
2022-11-21T02:25:21.090Z,93650.13
2022-11-21T02:27:50.395Z,93645.72
2022-11-21T02:30:17.804Z,93645.91
2022-11-21T02:32:47.158Z,93639.47
2022-11-21T02:35:16.736Z,93641.22
2022-11-21T02:37:47.497Z,93649.38
2022-11-21T02:40:30.159Z,93637.75
2022-11-21T02:43:08.839Z,93635.53
2022-11-21T02:45:42.007Z,93620.44
2022-11-21T02:48:08.732Z,93634.53
2022-11-21T02:50:37.619Z,93623.72
2022-11-21T02:53:07.225Z,93616.56
2022-11-21T02:55:34.009Z,93596.72
2022-11-21T02:58:04.874Z,93591.03
2022-11-21T03:00:34.132Z,93609.63
2022-11-21T03:03:00.994Z,93602.19
2022-11-21T03:05:27.842Z,93576.94
2022-11-21T03:07:54.697Z,93599.50
2022-11-21T03:10:21.791Z,93598.56
2022-11-21T03:12:48.847Z,93605.78
2022-11-21T03:15:16.003Z,93581.28
2022-11-21T03:17:43.642Z,93594.75
2022-11-21T03:20:10.749Z,93597.00
2022-11-21T03:22:37.424Z,93568.50
2022-11-21T03:25:04.506Z,93601.47
2022-11-21T03:27:31.257Z,93588.34
2022-11-21T03:29:57.889Z,93583.13
2022-11-21T03:32:24.911Z,93596.97
2022-11-21T03:34:51.695Z,93594.50
2022-11-21T03:37:18.635Z,93572.13
2022-11-21T03:39:45.399Z,93580.81
2022-11-21T03:42:12.160Z,93592.19
2022-11-21T03:44:38.790Z,93585.19
2022-11-21T03:47:05.568Z,93583.22
2022-11-21T03:49:32.373Z,93578.28
2022-11-21T03:51:59.138Z,93557.22
2022-11-21T03:54:26.250Z,93580.03
2022-11-21T03:56:53.190Z,93565.44
2022-11-21T03:59:19.865Z,93567.75
2022-11-21T04:01:46.706Z,93547.66
2022-11-21T04:04:13.332Z,93559.84
2022-11-21T04:06:39.886Z,93570.97
2022-11-21T04:09:06.575Z,93532.84
2022-11-21T04:11:33.282Z,93532.81
2022-11-21T04:14:00.334Z,93535.75
2022-11-21T04:16:26.995Z,93543.25
2022-11-21T04:18:53.757Z,93522.19
2022-11-21T04:21:20.966Z,93535.00
2022-11-21T04:23:47.959Z,93562.44
2022-11-21T04:26:14.770Z,93569.59
2022-11-21T04:28:41.445Z,93565.84
2022-11-21T04:31:11.037Z,93524.03
2022-11-21T04:33:39.542Z,93549.72
2022-11-21T04:36:08.302Z,93543.75
2022-11-21T04:38:35.450Z,93579.63
2022-11-21T04:41:02.176Z,93558.44
2022-11-21T04:43:29.042Z,93590.56
2022-11-21T04:45:55.683Z,93597.34
2022-11-21T04:48:22.425Z,93592.63
2022-11-21T04:50:49.638Z,93603.69
2022-11-21T04:53:16.425Z,93589.00
2022-11-21T04:55:43.235Z,93594.78
2022-11-21T04:58:10.066Z,93586.72
2022-11-21T05:00:37.075Z,93589.47
2022-11-21T05:03:06.013Z,93618.41
2022-11-21T05:05:33.523Z,93605.22
2022-11-21T05:08:00.545Z,93615.28
2022-11-21T05:10:27.249Z,93630.09
2022-11-21T05:13:19.335Z,93612.72
2022-11-21T05:15:46.675Z,93634.69
2022-11-21T05:18:13.249Z,93636.06
2022-11-21T05:20:39.998Z,93648.22
2022-11-21T05:23:07.023Z,93655.81
2022-11-21T05:25:33.680Z,93664.84
2022-11-21T05:28:00.390Z,93665.69
2022-11-21T05:30:27.204Z,93661.28
2022-11-21T05:32:53.895Z,93693.13
2022-11-21T05:35:20.694Z,93702.59
2022-11-21T05:37:47.384Z,93701.38
2022-11-21T05:40:14.288Z,93687.66
2022-11-21T05:43:01.172Z,93701.28
2022-11-21T05:45:28.050Z,93718.13
2022-11-21T05:47:54.829Z,93719.63
2022-11-21T05:50:21.633Z,93728.22
2022-11-21T05:52:48.301Z,93719.25
2022-11-21T05:55:15.129Z,93711.69
2022-11-21T05:57:41.895Z,93704.34
2022-11-21T06:00:09.227Z,93722.06
2022-11-21T06:02:54.709Z,93742.03
2022-11-21T06:05:21.405Z,93740.31
2022-11-21T06:07:48.195Z,93738.84
2022-11-21T06:10:15.324Z,93749.59
2022-11-21T06:12:42.333Z,93720.38
2022-11-21T06:15:09.414Z,93753.53
2022-11-21T06:17:36.082Z,93769.78
2022-11-21T06:20:02.858Z,93767.78
2022-11-21T06:22:29.931Z,93754.13
2022-11-21T06:24:56.707Z,93771.75
2022-11-21T06:27:23.803Z,93789.19
2022-11-21T06:29:51.054Z,93792.38
2022-11-21T06:32:18.030Z,93780.44
2022-11-21T06:34:44.981Z,93799.03
2022-11-21T06:37:11.605Z,93789.78
2022-11-21T06:39:38.585Z,93790.22
2022-11-21T06:42:05.931Z,93799.38
2022-11-21T06:44:32.735Z,93818.13
2022-11-21T06:46:59.595Z,93794.19
2022-11-21T06:49:26.639Z,93827.81
2022-11-21T06:51:53.247Z,93832.91
2022-11-21T06:54:19.864Z,93831.72
2022-11-21T06:56:46.568Z,93859.63
2022-11-21T06:59:13.142Z,93865.50
2022-11-21T07:01:39.769Z,93854.13
2022-11-21T07:04:06.443Z,93889.34
2022-11-21T07:06:34.715Z,93913.66
2022-11-21T07:11:48.053Z,93891.88
2022-11-21T07:14:14.881Z,93899.22
2022-11-21T07:16:41.633Z,93903.72
2022-11-21T07:19:08.577Z,93923.09
2022-11-21T07:21:35.317Z,93917.66
2022-11-21T07:24:02.083Z,93928.59
2022-11-21T07:26:29.006Z,93934.91
2022-11-21T07:28:55.933Z,93918.97
2022-11-21T07:31:22.600Z,93916.13
2022-11-21T07:33:49.356Z,93928.88
2022-11-21T07:36:16.338Z,93944.88
2022-11-21T07:38:43.149Z,93944.72
2022-11-21T07:41:10.543Z,93962.91
2022-11-21T07:43:37.159Z,93955.25
2022-11-21T07:46:04.055Z,93981.22
2022-11-21T07:48:30.778Z,93988.38
2022-11-21T07:50:57.479Z,93984.50
2022-11-21T07:53:24.292Z,93998.00
2022-11-21T07:55:51.165Z,93995.88
2022-11-21T07:58:18.757Z,94001.16
2022-11-21T08:00:45.765Z,93974.84
2022-11-21T08:03:13.502Z,94004.66
2022-11-21T08:05:42.542Z,94004.69
2022-11-21T08:08:10.835Z,93998.84
2022-11-21T08:10:43.717Z,94005.78
2022-11-21T08:13:11.152Z,93996.88
2022-11-21T08:15:38.063Z,93965.66
2022-11-21T08:18:12.240Z,94022.34
2022-11-21T08:20:39.674Z,94019.88
2022-11-21T08:23:07.186Z,94016.22
2022-11-21T08:25:34.957Z,93999.91
2022-11-21T08:28:02.974Z,93987.97
2022-11-21T08:30:30.558Z,94030.50
2022-11-21T08:33:02.395Z,94038.38
2022-11-21T08:35:29.837Z,93993.59
2022-11-21T08:37:57.827Z,94050.56
2022-11-21T08:40:26.457Z,94050.28
2022-11-21T08:43:04.101Z,94064.25
2022-11-21T08:45:32.061Z,94038.41
2022-11-21T08:47:59.061Z,93963.44
2022-11-21T08:50:26.548Z,94054.66
2022-11-21T08:52:53.561Z,94057.06
2022-11-21T08:55:20.497Z,94047.88
2022-11-21T08:57:47.159Z,94061.72
2022-11-21T09:00:14.281Z,94028.34
2022-11-21T09:02:40.915Z,94040.06
2022-11-21T09:05:08.112Z,94056.88
2022-11-21T09:07:34.792Z,94066.56
2022-11-21T09:10:01.425Z,94057.41
2022-11-21T09:12:28.131Z,94041.94
2022-11-21T09:15:13.546Z,94044.06
2022-11-21T09:17:58.723Z,94035.06
2022-11-21T09:20:25.498Z,94059.53
2022-11-21T09:22:52.416Z,94058.97
2022-11-21T09:25:19.315Z,94052.91
2022-11-21T09:27:47.013Z,94063.00
2022-11-21T09:30:14.543Z,94061.47
2022-11-21T09:32:41.687Z,94055.03
2022-11-21T09:35:08.955Z,94079.84
2022-11-21T09:37:38.997Z,94082.88
2022-11-21T09:40:06.487Z,94085.72
2022-11-21T09:43:15.801Z,94081.38
2022-11-21T09:45:48.455Z,94090.06
2022-11-21T09:48:27.924Z,94099.38
2022-11-21T09:51:00.399Z,94081.94
2022-11-21T09:53:38.068Z,94100.72
2022-11-21T09:56:13.935Z,94088.91
2022-11-21T09:58:47.076Z,94090.28
2022-11-21T10:01:16.331Z,94095.31
2022-11-21T10:03:52.296Z,94091.84
2022-11-21T10:06:21.993Z,94110.19
2022-11-21T10:09:11.940Z,94117.13
2022-11-21T10:11:58.925Z,94108.44
2022-11-21T10:14:53.175Z,94114.59
2022-11-21T10:17:40.004Z,94089.78
2022-11-21T10:20:21.884Z,94128.63
2022-11-21T10:22:58.646Z,94128.19
2022-11-21T10:25:30.776Z,94112.28
2022-11-21T10:28:32.234Z,94108.78
2022-11-21T10:31:00.211Z,94110.22
2022-11-21T10:33:32.835Z,94125.81
2022-11-21T10:36:22.644Z,94079.09
2022-11-21T10:38:50.367Z,94100.13
2022-11-21T10:41:23.729Z,94125.22
2022-11-21T10:44:39.158Z,94132.13
2022-11-21T10:47:14.311Z,94110.22
2022-11-21T10:49:42.296Z,94133.81
2022-11-21T10:52:17.315Z,94136.94
2022-11-21T10:55:02.535Z,94130.28
2022-11-21T10:57:33.248Z,94128.19
2022-11-21T11:00:04.690Z,94125.47
2022-11-21T11:02:31.243Z,94126.69
2022-11-21T11:05:37.409Z,94108.31
2022-11-21T11:08:11.306Z,94131.63
2022-11-21T11:10:46.312Z,94115.47
2022-11-21T11:13:49.915Z,94122.28
2022-11-21T11:16:21.956Z,94128.72
2022-11-21T11:19:13.304Z,94123.78
2022-11-21T11:21:40.983Z,94134.09
2022-11-21T11:24:10.449Z,94136.84
2022-11-21T11:26:49.587Z,94129.75
2022-11-21T11:29:23.565Z,94134.84
2022-11-21T11:31:59.085Z,94124.94
2022-11-21T11:34:50.139Z,94126.13
2022-11-21T11:37:44.061Z,94119.88
2022-11-21T11:40:33.037Z,94109.69
2022-11-21T11:43:35.220Z,94125.78
2022-11-21T11:46:26.673Z,94119.69
2022-11-21T11:49:19.945Z,94113.63
2022-11-21T11:51:54.861Z,94112.13
2022-11-21T11:54:34.538Z,94108.81
2022-11-21T11:57:03.624Z,94115.63
2022-11-21T11:59:38.212Z,94120.13
2022-11-21T12:02:22.152Z,94109.19
2022-11-21T12:05:17.843Z,94111.44
2022-11-21T12:08:39.595Z,94107.97
2022-11-21T12:11:05.874Z,94090.69
2022-11-21T12:13:36.445Z,94129.47
2022-11-21T12:16:13.229Z,94136.25
2022-11-21T12:18:56.407Z,94134.13
2022-11-21T12:21:23.637Z,94128.88
2022-11-21T12:23:58.503Z,94120.00
2022-11-21T12:27:02.313Z,94127.81
2022-11-21T12:29:50.024Z,94143.28
2022-11-21T12:32:55.854Z,94135.19
2022-11-21T12:35:41.254Z,94132.47
2022-11-21T12:38:07.799Z,94142.72
2022-11-21T12:40:52.435Z,94137.91
2022-11-21T12:43:40.627Z,94118.19
2022-11-21T12:46:13.140Z,94140.16
2022-11-21T12:49:22.223Z,94133.84
2022-11-21T12:52:30.707Z,94107.66
2022-11-21T12:55:35.609Z,94140.44
2022-11-21T12:58:08.831Z,94156.75
2022-11-21T13:00:44.261Z,94153.28
2022-11-21T13:03:38.944Z,94160.66
2022-11-21T13:06:13.493Z,94144.28
2022-11-21T13:08:42.523Z,94147.44
2022-11-21T13:11:55.047Z,94159.09
2022-11-21T13:14:41.930Z,94157.84
2022-11-21T13:17:36.257Z,94165.72
2022-11-21T13:20:24.393Z,94168.47
2022-11-21T13:22:56.421Z,94156.72
2022-11-21T13:25:31.747Z,94163.78
2022-11-21T13:28:13.784Z,94160.13
2022-11-21T13:30:48.428Z,94165.41
2022-11-21T13:33:39.906Z,94164.97
2022-11-21T13:36:35.632Z,94132.13
2022-11-21T13:39:03.335Z,94150.38
2022-11-21T13:41:54.393Z,94163.44
2022-11-21T13:44:32.959Z,94166.56
2022-11-21T13:47:26.432Z,94160.03
2022-11-21T13:50:08.301Z,94173.63
2022-11-21T13:52:48.130Z,94174.22
2022-11-21T13:55:49.502Z,94165.97
2022-11-21T13:58:21.830Z,94162.41
2022-11-21T14:01:12.353Z,94164.53
2022-11-21T14:03:49.189Z,94171.28
2022-11-21T14:06:36.258Z,94150.97
2022-11-21T14:09:23.939Z,94166.28
2022-11-21T14:12:02.030Z,94156.97
2022-11-21T14:14:51.646Z,94116.06
2022-11-21T14:17:49.008Z,94155.72
2022-11-21T14:20:20.736Z,94167.38
2022-11-21T14:23:04.019Z,94155.28
2022-11-21T14:25:40.355Z,94177.78
2022-11-21T14:28:13.165Z,94165.59
2022-11-21T14:30:41.818Z,94139.94
2022-11-21T14:33:41.918Z,94161.25
2022-11-21T14:36:31.980Z,94150.84
2022-11-21T14:39:36.058Z,94153.78
2022-11-21T14:41:54.573Z,94160.94
2022-11-21T14:44:22.274Z,94149.41
2022-11-21T14:46:49.714Z,94148.91
2022-11-21T14:49:16.395Z,94171.00
2022-11-21T14:51:52.343Z,94156.00
2022-11-21T14:54:22.192Z,94164.84
2022-11-21T14:56:57.185Z,94155.88
2022-11-21T14:59:30.983Z,94147.22
2022-11-21T15:02:03.937Z,94181.81
2022-11-21T15:04:36.118Z,94183.63
2022-11-21T15:07:04.536Z,94185.06
2022-11-21T15:12:44.684Z,94180.78
2022-11-21T15:15:15.660Z,94197.63
2022-11-21T15:18:10.212Z,94215.53
2022-11-21T15:20:30.989Z,94216.78
2022-11-21T15:23:02.298Z,94213.88
2022-11-21T15:25:31.185Z,94189.66
2022-11-21T15:28:00.685Z,94190.91
2022-11-21T15:30:32.469Z,94151.63
2022-11-21T15:33:03.410Z,94161.53
2022-11-21T15:35:45.319Z,94174.56
2022-11-21T15:38:29.776Z,94183.09
2022-11-21T15:41:02.852Z,94182.03
2022-11-21T15:43:44.538Z,94153.72
2022-11-21T15:46:17.093Z,94173.00
2022-11-21T15:49:30.943Z,94187.50
2022-11-21T15:52:07.032Z,94193.88
2022-11-21T15:54:34.247Z,94184.44
2022-11-21T15:57:01.087Z,94202.28
2022-11-21T15:59:28.263Z,94199.09
2022-11-21T16:01:55.571Z,94190.34
2022-11-21T16:04:25.625Z,94185.97
2022-11-21T16:06:53.729Z,94190.25
2022-11-21T16:09:20.428Z,94186.72
2022-11-21T16:11:47.445Z,94197.78
2022-11-21T16:14:16.151Z,94183.28
2022-11-21T16:16:44.095Z,94172.28
2022-11-21T16:19:15.110Z,94194.38
2022-11-21T16:21:42.928Z,94178.19
2022-11-21T16:24:10.145Z,94168.53
2022-11-21T16:26:36.869Z,94181.34
2022-11-21T16:29:07.533Z,94200.41
2022-11-21T16:31:34.332Z,94212.56
2022-11-21T16:34:01.418Z,94225.53
2022-11-21T16:36:32.673Z,94228.09
2022-11-21T16:39:07.647Z,94214.00
2022-11-21T16:41:35.875Z,94219.56
2022-11-21T16:44:02.840Z,94221.09
2022-11-21T16:46:29.963Z,94232.84
2022-11-21T16:49:02.169Z,94242.56
2022-11-21T16:51:29.131Z,94244.25
2022-11-21T16:53:57.072Z,94261.53
2022-11-21T16:56:23.787Z,94244.50
2022-11-21T16:58:50.625Z,94244.47
2022-11-21T17:01:20.377Z,94242.53
2022-11-21T17:03:49.383Z,94236.94
2022-11-21T17:06:23.851Z,94254.19
2022-11-21T17:08:50.785Z,94233.38
2022-11-21T17:11:23.566Z,94262.47
2022-11-21T17:13:51.575Z,94271.88
2022-11-21T17:16:20.429Z,94275.88
2022-11-21T17:18:47.202Z,94276.41
2022-11-21T17:21:16.292Z,94273.34
2022-11-21T17:23:45.236Z,94273.25
2022-11-21T17:26:14.650Z,94291.78
2022-11-21T17:28:45.563Z,94282.22
2022-11-21T17:31:15.614Z,94304.09
2022-11-21T17:33:44.167Z,94296.47
2022-11-21T17:36:15.081Z,94298.09
2022-11-21T17:38:44.445Z,94305.84
2022-11-21T17:41:12.680Z,94224.81
2022-11-21T17:43:39.825Z,94293.44
2022-11-21T17:46:17.968Z,94319.53
2022-11-21T17:48:51.247Z,94279.88
2022-11-21T17:51:23.679Z,94319.97
2022-11-21T17:53:51.876Z,94325.13
2022-11-21T17:56:27.285Z,94316.63
2022-11-21T17:58:53.987Z,94313.38
2022-11-21T18:01:22.231Z,94318.13
2022-11-21T18:03:53.546Z,94322.13
2022-11-21T18:06:20.484Z,94331.06
2022-11-21T18:08:49.143Z,94317.94
2022-11-21T18:11:19.474Z,94333.22
2022-11-21T18:13:48.039Z,94326.97
2022-11-21T18:16:18.758Z,94333.13
2022-11-21T18:18:45.927Z,94318.88
2022-11-21T18:21:21.802Z,94280.06
2022-11-21T18:23:49.541Z,94291.63
2022-11-21T18:26:21.222Z,94312.41
2022-11-21T18:29:13.087Z,94323.63
2022-11-21T18:31:39.626Z,94305.63
2022-11-21T18:34:07.463Z,94337.84
2022-11-21T18:36:34.316Z,94343.16
2022-11-21T18:39:07.359Z,94324.72
2022-11-21T18:41:38.969Z,94335.06
2022-11-21T18:44:07.136Z,94337.84
2022-11-21T18:46:36.613Z,94327.81
2022-11-21T18:49:06.799Z,94311.97
2022-11-21T18:51:35.407Z,94313.81
2022-11-21T18:54:07.435Z,94313.06
2022-11-21T18:56:35.412Z,94325.88
2022-11-21T18:59:04.099Z,94317.16
2022-11-21T19:01:32.117Z,94323.19
2022-11-21T19:03:59.755Z,94312.53
2022-11-21T19:06:28.139Z,94325.91
2022-11-21T19:08:56.691Z,94333.47
2022-11-21T19:11:25.512Z,94334.09
2022-11-21T19:13:53.801Z,94335.38
2022-11-21T19:16:24.484Z,94318.00
2022-11-21T19:19:18.555Z,94338.06
2022-11-21T19:21:39.876Z,94328.59
2022-11-21T19:24:07.886Z,94341.94
2022-11-21T19:26:34.683Z,94349.28
2022-11-21T19:29:01.816Z,94360.94
2022-11-21T19:31:30.584Z,94338.16
2022-11-21T19:33:58.616Z,94337.41
2022-11-21T19:36:25.808Z,94363.00
2022-11-21T19:38:53.021Z,94349.28
2022-11-21T19:41:27.593Z,94365.78
2022-11-21T19:44:02.099Z,94367.94
2022-11-21T19:46:34.573Z,94336.75
2022-11-21T19:49:02.293Z,94384.75
2022-11-21T19:51:38.081Z,94365.69
2022-11-21T19:54:06.738Z,94367.75
2022-11-21T19:56:34.044Z,94374.44
2022-11-21T19:59:01.056Z,94374.31
2022-11-21T20:01:30.238Z,94341.19
2022-11-21T20:04:01.582Z,94299.78
2022-11-21T20:06:31.934Z,94329.47
2022-11-21T20:09:01.672Z,94320.59
2022-11-21T20:11:30.385Z,94403.75
2022-11-21T20:13:57.528Z,94386.59
2022-11-21T20:16:28.833Z,94402.13
2022-11-21T20:18:58.910Z,94342.91
2022-11-21T20:21:26.533Z,94405.47
2022-11-21T20:23:54.412Z,94403.97
2022-11-21T20:26:23.554Z,94355.50
2022-11-21T20:28:50.814Z,94411.06
2022-11-21T20:31:23.738Z,94392.72
2022-11-21T20:33:53.266Z,94372.34
2022-11-21T20:36:22.505Z,94403.19
2022-11-21T20:38:54.906Z,94421.53
2022-11-21T20:41:27.679Z,94418.22
2022-11-21T20:46:43.066Z,94380.41
2022-11-21T20:49:10.025Z,94387.00
2022-11-21T20:54:24.385Z,94409.00
2022-11-21T20:56:51.298Z,94422.16
2022-11-21T20:59:17.974Z,94417.84
2022-11-21T21:01:44.931Z,94409.44
2022-11-21T21:04:12.166Z,94417.75
2022-11-21T21:06:39.860Z,94422.50
2022-11-21T21:09:06.770Z,94415.28
2022-11-21T21:14:22.200Z,94397.59
2022-11-21T21:16:49.480Z,94422.53
2022-11-21T21:19:17.256Z,94430.94
2022-11-21T21:21:43.951Z,94433.50
2022-11-21T21:24:11.590Z,94430.81
2022-11-21T21:26:42.981Z,94433.81
2022-11-21T21:29:16.062Z,94440.09
2022-11-21T21:31:50.101Z,94443.09
2022-11-21T21:34:22.675Z,94439.47
2022-11-21T21:36:49.900Z,94435.97
2022-11-21T21:39:16.622Z,94318.25
2022-11-21T21:41:47.230Z,94416.47
2022-11-21T21:44:15.143Z,94422.59
2022-11-21T21:46:42.071Z,94393.88
2022-11-21T21:49:08.964Z,94423.78
2022-11-21T21:51:37.455Z,94418.16
2022-11-21T21:54:05.196Z,94426.25
2022-11-21T21:56:32.755Z,94429.56
2022-11-21T21:59:00.093Z,94451.38
2022-11-21T22:01:31.772Z,94443.34
2022-11-21T22:04:01.075Z,94420.16
2022-11-21T22:06:28.214Z,94442.84
2022-11-21T22:08:55.847Z,94457.31
2022-11-21T22:11:27.754Z,94471.44
2022-11-21T22:13:56.951Z,94470.25
2022-11-21T22:16:23.918Z,94471.13
2022-11-21T22:18:50.603Z,94466.06
2022-11-21T22:21:19.710Z,94465.75
2022-11-21T22:24:17.329Z,94473.44
2022-11-21T22:26:33.693Z,94454.63
2022-11-21T22:29:00.383Z,94466.19
2022-11-21T22:31:30.629Z,94477.09
2022-11-21T22:33:57.552Z,94464.25
2022-11-21T22:36:24.407Z,94474.63
2022-11-21T22:38:55.013Z,94481.72
2022-11-21T22:41:26.507Z,94464.78
2022-11-21T22:43:57.780Z,94475.47
2022-11-21T22:46:27.207Z,94479.31
2022-11-21T22:48:54.465Z,94487.84
2022-11-21T22:51:26.979Z,94483.22
2022-11-21T22:53:54.122Z,94473.59
2022-11-21T22:56:23.350Z,94470.25
2022-11-21T22:58:50.582Z,94437.22
2022-11-21T23:01:23.355Z,94492.59
2022-11-21T23:03:50.992Z,94395.84
2022-11-21T23:06:21.655Z,94491.75
2022-11-21T23:08:48.669Z,94483.00
2022-11-21T23:11:18.669Z,94486.25
2022-11-21T23:13:47.204Z,94437.97
2022-11-21T23:16:15.344Z,94480.78
2022-11-21T23:18:42.345Z,94467.47
2022-11-21T23:21:10.233Z,94471.38
2022-11-21T23:23:37.690Z,94457.47
2022-11-21T23:26:05.482Z,94446.44
2022-11-21T23:28:32.731Z,94474.19
2022-11-21T23:30:59.621Z,94464.81
2022-11-21T23:33:26.418Z,94434.97
2022-11-21T23:35:53.074Z,94436.16
2022-11-21T23:38:20.999Z,94466.50
2022-11-21T23:40:49.248Z,94464.78
2022-11-21T23:43:16.908Z,94462.03
2022-11-21T23:45:45.323Z,94496.16
2022-11-21T23:48:12.232Z,94486.25
2022-11-21T23:50:39.238Z,94489.56
2022-11-21T23:53:05.904Z,94492.56
2022-11-21T23:55:32.657Z,94492.06
2022-11-21T23:57:59.247Z,94491.97
